Time;durP1;ratioP1;P1;durP2;ratioP2;P2;SDS_P1;SDS_P2;PMS_P1;PMS_P2;Temp;Humidity;BMP_temperature;BMP_pressure;BME280_temperature;BME280_humidity;BME280_pressure;Samples;Min_cycle;Max_cycle;Signal;HPM_P1;HPM_P2
2022/04/22 00:00:48;;;;;;;10.68;9.73;;;;;;;;;;4937732;29;20083;-67
2022/04/22 00:03:16;;;;;;;11.52;9.98;;;;;;;;;;4938122;29;20048;-66
2022/04/22 00:05:45;;;;;;;10.95;9.95;;;;;;;;;;4937933;29;20051;-67
2022/04/22 00:08:12;;;;;;;10.77;9.88;;;;;;;;;;4937857;29;20051;-67
2022/04/22 00:11:29;;;;;;;11.27;10.15;;;;;;;;;;4937680;29;20086;-67
2022/04/22 00:13:30;;;;;;;12.32;11.13;;;;;;;;;;4937715;29;20432;-67
2022/04/22 00:15:59;;;;;;;10.90;9.80;;;;;;;;;;4937249;29;20048;-67
2022/04/22 00:18:28;;;;;;;11.43;10.38;;;;;;;;;;4937931;29;20047;-66
2022/04/22 00:20:56;;;;;;;11.93;10.07;;;;;;;;;;4937288;29;20059;-67
2022/04/22 00:23:26;;;;;;;11.20;9.98;;;;;;;;;;4936927;29;20078;-67
2022/04/22 00:25:54;;;;;;;11.60;10.50;;;;;;;;;;4937042;29;20040;-68
2022/04/22 00:28:23;;;;;;;12.88;10.73;;;;;;;;;;4937745;29;20131;-66
2022/04/22 00:30:51;;;;;;;11.82;10.73;;;;;;;;;;4937634;29;20054;-66
2022/04/22 00:33:19;;;;;;;11.55;10.45;;;;;;;;;;4937748;29;20059;-66
2022/04/22 00:35:49;;;;;;;11.45;9.75;;;;;;;;;;4937315;29;20055;-66
2022/04/22 00:38:17;;;;;;;10.43;9.35;;;;;;;;;;4937275;29;20048;-66
2022/04/22 00:40:45;;;;;;;11.27;10.18;;;;;;;;;;4937400;29;20488;-66
2022/04/22 00:43:13;;;;;;;10.15;9.23;;;;;;;;;;4936920;29;20055;-66
2022/04/22 00:45:43;;;;;;;10.80;9.82;;;;;;;;;;4937713;29;20507;-66
2022/04/22 00:48:11;;;;;;;10.57;9.68;;;;;;;;;;4937267;29;20107;-66
2022/04/22 00:50:40;;;;;;;11.75;10.50;;;;;;;;;;4936522;29;20377;-66
2022/04/22 00:53:09;;;;;;;10.40;9.40;;;;;;;;;;4937532;29;20048;-66
2022/04/22 00:55:40;;;;;;;10.70;9.68;;;;;;;;;;4937530;29;20106;-66
2022/04/22 00:58:09;;;;;;;10.60;9.57;;;;;;;;;;4937457;29;20479;-66
2022/04/22 01:00:41;;;;;;;11.15;10.15;;;;;;;;;;4937217;29;20052;-66
2022/04/22 01:03:09;;;;;;;9.43;8.43;;;;;;;;;;4937080;29;20103;-66
2022/04/22 01:11:12;;;;;;;10.02;9.13;;;;;;;;;;4936854;29;20192;-67
2022/04/22 01:13:41;;;;;;;9.93;9.02;;;;;;;;;;4937305;29;20055;-67
2022/04/22 01:16:09;;;;;;;9.63;8.63;;;;;;;;;;4936976;29;20139;-67
2022/04/22 01:18:38;;;;;;;10.52;9.40;;;;;;;;;;4937295;29;20079;-68
2022/04/22 01:21:06;;;;;;;10.15;9.15;;;;;;;;;;4937432;29;20047;-68
2022/04/22 01:23:36;;;;;;;9.00;8.15;;;;;;;;;;4937555;29;20058;-67
2022/04/22 01:26:05;;;;;;;9.18;8.38;;;;;;;;;;4928470;29;20044;-68
2022/04/22 01:28:33;;;;;;;9.13;8.23;;;;;;;;;;4917078;29;20040;-68
2022/04/22 01:31:00;;;;;;;8.90;8.00;;;;;;;;;;4921492;29;20063;-67
2022/04/22 01:33:29;;;;;;;11.00;9.15;;;;;;;;;;4919798;29;20047;-67
2022/04/22 01:36:00;;;;;;;9.95;8.95;;;;;;;;;;4923186;29;20086;-67
2022/04/22 01:38:28;;;;;;;9.07;8.15;;;;;;;;;;4935032;29;20052;-67
2022/04/22 01:40:57;;;;;;;8.90;8.10;;;;;;;;;;4933713;29;20083;-66
2022/04/22 01:43:24;;;;;;;10.73;9.63;;;;;;;;;;4931778;29;20119;-67
2022/04/22 01:45:53;;;;;;;10.43;9.43;;;;;;;;;;4927763;29;20066;-67
2022/04/22 01:48:21;;;;;;;9.10;8.23;;;;;;;;;;4920942;29;20070;-66
2022/04/22 01:50:51;;;;;;;10.65;9.18;;;;;;;;;;4921730;29;20051;-66
2022/04/22 01:53:19;;;;;;;10.00;9.10;;;;;;;;;;4921435;29;20048;-66
2022/04/22 01:55:48;;;;;;;10.63;9.55;;;;;;;;;;4935407;29;20091;-67
2022/04/22 01:58:17;;;;;;;10.57;9.57;;;;;;;;;;4937079;29;20051;-67
2022/04/22 02:00:46;;;;;;;11.68;10.23;;;;;;;;;;4929210;29;20472;-67
2022/04/22 02:03:14;;;;;;;12.85;11.65;;;;;;;;;;4927977;29;20051;-66
2022/04/22 02:05:42;;;;;;;10.68;9.68;;;;;;;;;;4920259;29;20044;-66
2022/04/22 02:08:12;;;;;;;11.02;9.93;;;;;;;;;;4920559;29;20040;-66
2022/04/22 02:10:41;;;;;;;13.70;11.48;;;;;;;;;;4919569;29;20475;-67
2022/04/22 02:13:10;;;;;;;12.07;10.88;;;;;;;;;;4920494;29;20052;-66
2022/04/22 02:15:38;;;;;;;10.93;9.90;;;;;;;;;;4920078;29;20040;-66
2022/04/22 02:18:07;;;;;;;11.88;10.65;;;;;;;;;;4918811;29;20044;-66
2022/04/22 02:20:36;;;;;;;12.30;11.10;;;;;;;;;;4919693;29;20428;-67
2022/04/22 02:23:06;;;;;;;11.02;9.93;;;;;;;;;;4919287;29;20056;-66
2022/04/22 02:25:34;;;;;;;11.13;10.02;;;;;;;;;;4919806;29;20083;-66
2022/04/22 02:30:48;;;;;;;9.55;8.65;;;;;;;;;;4920499;29;20063;-67
2022/04/22 02:33:17;;;;;;;9.73;8.82;;;;;;;;;;4920054;29;20131;-66
2022/04/22 02:35:45;;;;;;;10.57;9.57;;;;;;;;;;4920208;29;20054;-66
2022/04/22 02:38:13;;;;;;;9.43;8.52;;;;;;;;;;4920247;29;20058;-67
2022/04/22 02:46:15;;;;;;;9.25;8.35;;;;;;;;;;4919845;29;20059;-66
2022/04/22 02:48:44;;;;;;;9.10;8.13;;;;;;;;;;4920035;29;20055;-66
2022/04/22 02:51:12;;;;;;;8.68;7.78;;;;;;;;;;4920449;29;20052;-66
2022/04/22 02:53:39;;;;;;;8.90;8.00;;;;;;;;;;4920001;29;20411;-66
2022/04/22 02:56:08;;;;;;;7.88;7.07;;;;;;;;;;4919774;29;20075;-66
2022/04/22 02:58:36;;;;;;;7.40;6.68;;;;;;;;;;4919124;29;20071;-66
2022/04/22 03:01:05;;;;;;;7.72;7.03;;;;;;;;;;4918388;29;20522;-67
2022/04/22 03:03:33;;;;;;;9.35;7.93;;;;;;;;;;4919608;29;20056;-66
2022/04/22 03:06:01;;;;;;;7.30;6.63;;;;;;;;;;4919800;29;20551;-66
2022/04/22 03:08:30;;;;;;;8.52;6.55;;;;;;;;;;4918756;29;20512;-66
2022/04/22 03:10:59;;;;;;;7.40;6.70;;;;;;;;;;4919241;29;20405;-67
2022/04/22 03:13:28;;;;;;;8.35;7.03;;;;;;;;;;4919599;29;20135;-67
2022/04/22 03:15:57;;;;;;;5.97;5.38;;;;;;;;;;4919592;29;20052;-67
2022/04/22 03:18:27;;;;;;;6.70;6.00;;;;;;;;;;4919863;29;20044;-67
2022/04/22 03:20:56;;;;;;;6.65;6.05;;;;;;;;;;4919901;29;20135;-70
2022/04/22 03:23:24;;;;;;;5.18;4.68;;;;;;;;;;4919287;29;20449;-66
2022/04/22 03:25:56;;;;;;;5.22;4.82;;;;;;;;;;4918606;29;20052;-67
2022/04/22 03:28:24;;;;;;;5.20;4.70;;;;;;;;;;4919034;29;20066;-66
2022/04/22 03:30:53;;;;;;;5.32;4.82;;;;;;;;;;4919421;29;20063;-66
2022/04/22 03:33:22;;;;;;;5.05;4.60;;;;;;;;;;4919122;29;20484;-67
2022/04/22 03:35:51;;;;;;;5.22;4.82;;;;;;;;;;4919445;29;20504;-67
2022/04/22 03:38:20;;;;;;;4.47;3.88;;;;;;;;;;4919035;29;20073;-66
2022/04/22 03:40:50;;;;;;;6.78;4.85;;;;;;;;;;4919320;29;20083;-67
2022/04/22 03:43:20;;;;;;;4.47;4.10;;;;;;;;;;4919052;29;20076;-67
2022/04/22 03:45:48;;;;;;;4.15;3.75;;;;;;;;;;4919370;29;20048;-67
2022/04/22 03:48:17;;;;;;;4.50;4.10;;;;;;;;;;4919380;29;20152;-67
2022/04/22 03:50:46;;;;;;;3.95;3.60;;;;;;;;;;4919435;29;20059;-66
2022/04/22 03:53:15;;;;;;;3.83;3.20;;;;;;;;;;4919251;29;20155;-66
2022/04/22 03:55:43;;;;;;;3.33;3.03;;;;;;;;;;4918850;29;20056;-68
2022/04/22 03:58:12;;;;;;;3.25;2.95;;;;;;;;;;4918795;29;20052;-69
2022/04/22 04:00:44;;;;;;;3.65;3.35;;;;;;;;;;4919350;29;20195;-70
2022/04/22 04:03:26;;;;;;;3.22;2.92;;;;;;;;;;4918896;29;20044;-69
2022/04/22 04:05:54;;;;;;;3.47;3.17;;;;;;;;;;4918611;29;20056;-69
2022/04/22 04:08:24;;;;;;;3.17;2.97;;;;;;;;;;4918716;29;20040;-69
2022/04/22 04:16:27;;;;;;;2.88;2.60;;;;;;;;;;4918254;29;20048;-68
2022/04/22 04:23:14;;;;;;;3.45;3.25;;;;;;;;;;4919232;29;20047;-69
2022/04/22 04:24:32;;;;;;;3.47;3.17;;;;;;;;;;4918870;29;20135;-67
2022/04/22 04:27:02;;;;;;;3.40;3.10;;;;;;;;;;4918598;29;20087;-68
2022/04/22 04:29:30;;;;;;;3.17;2.88;;;;;;;;;;4917484;29;20056;-69
2022/04/22 04:31:59;;;;;;;3.03;2.83;;;;;;;;;;4918220;29;20044;-69
2022/04/22 04:34:28;;;;;;;3.30;3.00;;;;;;;;;;4918445;29;20052;-69
2022/04/22 04:36:58;;;;;;;4.65;4.05;;;;;;;;;;4918434;29;20051;-69
2022/04/22 04:39:26;;;;;;;3.70;3.40;;;;;;;;;;4917985;29;20139;-69
2022/04/22 04:41:56;;;;;;;3.70;3.40;;;;;;;;;;4918960;29;20052;-69
2022/04/22 04:44:25;;;;;;;3.03;2.80;;;;;;;;;;4918035;29;20052;-69
2022/04/22 04:46:54;;;;;;;3.60;3.30;;;;;;;;;;4918584;29;20143;-69
2022/04/22 04:49:27;;;;;;;4.22;3.88;;;;;;;;;;4917720;29;20052;-69
2022/04/22 04:51:58;;;;;;;4.72;3.20;;;;;;;;;;4918600;29;20048;-69
2022/04/22 04:54:26;;;;;;;3.75;3.45;;;;;;;;;;4918343;29;20052;-70
2022/04/22 04:56:54;;;;;;;4.32;3.92;;;;;;;;;;4918316;29;20134;-69
2022/04/22 04:59:22;;;;;;;3.85;3.55;;;;;;;;;;4919263;29;20063;-70
2022/04/22 05:01:51;;;;;;;4.85;4.35;;;;;;;;;;4927687;29;20087;-70
2022/04/22 05:04:20;;;;;;;3.28;3.03;;;;;;;;;;4930481;29;20431;-71
2022/04/22 05:06:48;;;;;;;4.07;3.67;;;;;;;;;;4926703;29;20516;-70
2022/04/22 05:09:17;;;;;;;4.45;4.05;;;;;;;;;;4927566;29;20055;-71
2022/04/22 05:11:45;;;;;;;14.57;5.55;;;;;;;;;;4929440;29;20495;-72
2022/04/22 05:14:14;;;;;;;4.22;3.83;;;;;;;;;;4936584;29;20043;-69
2022/04/22 05:16:43;;;;;;;4.60;3.90;;;;;;;;;;4932763;29;20043;-69
2022/04/22 05:19:12;;;;;;;3.92;3.63;;;;;;;;;;4932598;29;20055;-69
2022/04/22 05:21:43;;;;;;;5.18;4.68;;;;;;;;;;4928922;29;20151;-69
2022/04/22 05:24:11;;;;;;;4.28;3.97;;;;;;;;;;4926968;29;20119;-69
2022/04/22 05:26:40;;;;;;;4.63;4.22;;;;;;;;;;4932525;29;20056;-69
2022/04/22 05:32:36;;;;;;;4.32;4.03;;;;;;;;;;4934720;29;20094;-69
2022/04/22 05:34:46;;;;;;;5.72;5.22;;;;;;;;;;4934455;29;20476;-69
2022/04/22 05:37:16;;;;;;;5.78;5.28;;;;;;;;;;4930845;29;20051;-71
2022/04/22 05:39:47;;;;;;;6.72;6.13;;;;;;;;;;4930464;29;20059;-68
2022/04/22 05:42:17;;;;;;;6.50;5.90;;;;;;;;;;4926218;29;20052;-69
2022/04/22 05:44:45;;;;;;;6.00;5.50;;;;;;;;;;4923954;29;20058;-69
2022/04/22 05:47:13;;;;;;;6.85;6.22;;;;;;;;;;4932198;29;20055;-69
2022/04/22 05:49:42;;;;;;;7.50;6.72;;;;;;;;;;4932436;29;20052;-69
2022/04/22 05:52:12;;;;;;;7.57;6.88;;;;;;;;;;4923338;29;20052;-70
2022/04/22 05:54:46;;;;;;;7.68;6.97;;;;;;;;;;4923682;29;20048;-70
2022/04/22 05:57:15;;;;;;;7.32;6.63;;;;;;;;;;4933072;29;20469;-69
2022/04/22 05:59:43;;;;;;;8.55;7.68;;;;;;;;;;4920884;29;20087;-69
2022/04/22 06:02:12;;;;;;;8.25;7.45;;;;;;;;;;4919186;29;20048;-69
2022/04/22 06:04:40;;;;;;;9.02;8.23;;;;;;;;;;4937002;29;20623;-69
2022/04/22 06:07:08;;;;;;;9.63;8.73;;;;;;;;;;4936996;29;20086;-69
2022/04/22 06:12:24;;;;;;;9.10;8.23;;;;;;;;;;4924106;29;20076;-69
2022/04/22 06:14:53;;;;;;;9.23;8.32;;;;;;;;;;4933283;29;20500;-68
2022/04/22 06:17:21;;;;;;;9.07;8.18;;;;;;;;;;4938961;29;20059;-68
2022/04/22 06:19:50;;;;;;;10.18;9.18;;;;;;;;;;4940001;29;20519;-68
2022/04/22 06:22:19;;;;;;;10.68;9.57;;;;;;;;;;4927235;29;20056;-68
2022/04/22 06:24:47;;;;;;;9.43;8.52;;;;;;;;;;4920842;29;20072;-69
2022/04/22 06:27:26;;;;;;;10.73;9.75;;;;;;;;;;4919116;29;20052;-68
2022/04/22 06:29:55;;;;;;;11.23;9.45;;;;;;;;;;4918490;29;20050;-68
2022/04/22 06:32:27;;;;;;;11.98;10.73;;;;;;;;;;4918705;29;20052;-68
2022/04/22 06:34:56;;;;;;;12.13;10.93;;;;;;;;;;4918432;29;20134;-67
2022/04/22 06:37:28;;;;;;;10.73;9.68;;;;;;;;;;4918338;29;20063;-68
2022/04/22 06:45:47;;;;;;;11.65;10.45;;;;;;;;;;4919810;29;20194;-68
2022/04/22 06:48:30;;;;;;;11.30;10.15;;;;;;;;;;4920033;29;20050;-69
2022/04/22 06:51:20;;;;;;;12.57;11.30;;;;;;;;;;4931589;29;20086;-69
2022/04/22 06:53:51;;;;;;;;;;;;;;;;;;4954996;29;20138;-70
2022/04/22 06:56:26;;;;;;;11.32;10.23;;;;;;;;;;4956052;28;20290;-71
2022/04/22 06:58:56;;;;;;;12.63;11.32;;;;;;;;;;4937318;29;20067;-71
2022/04/22 07:01:25;;;;;;;11.25;10.15;;;;;;;;;;4938746;29;20044;-70
2022/04/22 07:04:11;;;;;;;10.10;9.10;;;;;;;;;;4938018;29;20040;-70
2022/04/22 07:06:44;;;;;;;11.23;10.13;;;;;;;;;;4938183;29;20048;-70
2022/04/22 07:09:32;;;;;;;11.18;10.05;;;;;;;;;;4938353;29;20133;-72
2022/04/22 07:12:01;;;;;;;9.60;8.70;;;;;;;;;;4938715;29;20055;-71
2022/04/22 07:14:31;;;;;;;10.13;9.13;;;;;;;;;;4938416;29;20075;-70
2022/04/22 07:17:00;;;;;;;10.38;9.32;;;;;;;;;;4938062;29;20436;-71
2022/04/22 07:19:31;;;;;;;9.98;8.98;;;;;;;;;;4938817;29;20067;-71
2022/04/22 07:22:00;;;;;;;9.95;8.95;;;;;;;;;;4938853;29;20419;-70
2022/04/22 07:24:29;;;;;;;12.50;11.20;;;;;;;;;;4938572;29;20051;-70
2022/04/22 07:26:59;;;;;;;10.90;9.80;;;;;;;;;;4938463;29;20526;-71
2022/04/22 07:29:28;;;;;;;12.07;10.20;;;;;;;;;;4937757;29;20147;-72
2022/04/22 07:31:57;;;;;;;11.32;9.90;;;;;;;;;;4936820;29;20055;-70
2022/04/22 07:34:27;;;;;;;11.43;10.02;;;;;;;;;;4937896;29;20063;-70
2022/04/22 07:36:57;;;;;;;9.90;8.93;;;;;;;;;;4937111;29;20055;-71
2022/04/22 07:39:27;;;;;;;10.32;9.20;;;;;;;;;;4937288;29;20052;-70
2022/04/22 07:41:57;;;;;;;9.65;8.73;;;;;;;;;;4937578;29;20522;-73
2022/04/22 07:47:12;;;;;;;12.30;11.10;;;;;;;;;;4937058;29;20384;-71
2022/04/22 07:49:40;;;;;;;10.57;9.50;;;;;;;;;;4938178;29;20131;-71
2022/04/22 07:52:09;;;;;;;11.07;10.00;;;;;;;;;;4937430;29;20062;-71
2022/04/22 07:54:38;;;;;;;12.10;10.80;;;;;;;;;;4938056;29;20103;-71
2022/04/22 07:57:10;;;;;;;12.35;11.15;;;;;;;;;;4937439;29;20051;-71
2022/04/22 07:59:39;;;;;;;11.77;10.57;;;;;;;;;;4938061;29;20055;-71
2022/04/22 08:02:07;;;;;;;10.25;9.25;;;;;;;;;;4937686;29;20035;-72
2022/04/22 08:04:36;;;;;;;12.90;10.43;;;;;;;;;;4937450;29;20047;-71
2022/04/22 08:07:06;;;;;;;13.13;11.82;;;;;;;;;;4937335;29;20142;-71
2022/04/22 08:09:50;;;;;;;12.30;11.20;;;;;;;;;;4937218;29;20134;-72
2022/04/22 08:12:19;;;;;;;13.75;12.45;;;;;;;;;;4937234;29;20392;-72
2022/04/22 08:14:47;;;;;;;13.00;11.68;;;;;;;;;;4937542;29;20047;-74
2022/04/22 08:17:16;;;;;;;14.52;13.13;;;;;;;;;;4932661;29;20043;-74
2022/04/22 08:19:46;;;;;;;13.88;11.88;;;;;;;;;;4923364;29;20051;-72
2022/04/22 08:22:14;;;;;;;14.23;12.85;;;;;;;;;;4933318;29;20071;-74
2022/04/22 08:24:43;;;;;;;14.45;13.05;;;;;;;;;;4935214;29;20059;-75
2022/04/22 08:27:11;;;;;;;15.45;13.85;;;;;;;;;;4935565;29;20403;-72
2022/04/22 08:29:39;;;;;;;17.90;14.80;;;;;;;;;;4933199;29;20072;-71
2022/04/22 08:32:08;;;;;;;16.83;15.07;;;;;;;;;;4936612;29;20127;-70
2022/04/22 08:34:37;;;;;;;16.85;15.15;;;;;;;;;;4935181;29;20456;-70
2022/04/22 08:37:05;;;;;;;15.70;13.98;;;;;;;;;;4935568;29;20054;-70
2022/04/22 08:39:33;;;;;;;16.05;14.40;;;;;;;;;;4933929;29;20470;-71
2022/04/22 08:42:02;;;;;;;15.88;14.27;;;;;;;;;;4917554;29;20063;-73
2022/04/22 08:44:51;;;;;;;16.30;14.63;;;;;;;;;;4930321;29;20564;-71
2022/04/22 08:50:13;;;;;;;16.98;15.20;;;;;;;;;;4922659;29;20071;-73
2022/04/22 08:52:43;;;;;;;17.05;15.27;;;;;;;;;;4936653;29;20519;-71
2022/04/22 08:55:13;;;;;;;19.08;16.95;;;;;;;;;;4939023;29;20047;-71
2022/04/22 08:57:42;;;;;;;19.13;17.13;;;;;;;;;;4938994;29;20063;-71
2022/04/22 09:00:16;;;;;;;19.93;17.93;;;;;;;;;;4940107;29;20094;-69
2022/04/22 09:02:46;;;;;;;18.67;16.67;;;;;;;;;;4940354;29;20058;-70
2022/04/22 09:05:15;;;;;;;19.23;17.00;;;;;;;;;;4940094;29;20475;-69
2022/04/22 09:07:44;;;;;;;20.10;17.48;;;;;;;;;;4940282;29;20123;-69
2022/04/22 09:10:12;;;;;;;19.85;17.75;;;;;;;;;;4939808;29;20103;-69
2022/04/22 09:12:43;;;;;;;19.70;17.60;;;;;;;;;;4940648;29;20051;-69
2022/04/22 09:15:14;;;;;;;21.33;19.15;;;;;;;;;;4937859;29;20452;-70
2022/04/22 09:17:43;;;;;;;20.42;18.23;;;;;;;;;;4937680;29;20052;-71
2022/04/22 09:20:15;;;;;;;19.48;17.38;;;;;;;;;;4938449;29;20043;-72
2022/04/22 09:22:44;;;;;;;21.75;19.45;;;;;;;;;;4938921;29;20063;-72
2022/04/22 09:25:12;;;;;;;22.98;20.42;;;;;;;;;;4938687;29;20056;-72
2022/04/22 09:27:42;;;;;;;23.45;17.77;;;;;;;;;;4937828;29;20055;-72
2022/04/22 09:30:12;;;;;;;23.55;21.05;;;;;;;;;;4938397;29;20048;-72
2022/04/22 09:32:44;;;;;;;21.50;19.02;;;;;;;;;;4938933;29;20064;-72
2022/04/22 09:35:21;;;;;;;21.05;18.83;;;;;;;;;;4938574;29;20055;-72
2022/04/22 09:43:42;;;;;;;21.80;19.48;;;;;;;;;;4937048;29;20050;-72
2022/04/22 09:46:23;;;;;;;21.27;18.70;;;;;;;;;;4938307;29;20518;-72
2022/04/22 09:48:52;;;;;;;23.38;19.33;;;;;;;;;;4937351;29;20055;-72
2022/04/22 09:51:27;;;;;;;23.67;20.90;;;;;;;;;;4923603;29;20051;-72
2022/04/22 09:54:01;;;;;;;22.75;18.98;;;;;;;;;;4937954;29;20111;-72
2022/04/22 09:56:32;;;;;;;23.40;20.90;;;;;;;;;;4919443;29;20156;-71
2022/04/22 09:59:21;;;;;;;23.83;21.25;;;;;;;;;;4919849;29;20087;-72
2022/04/22 10:01:51;;;;;;;24.00;21.50;;;;;;;;;;4919474;29;20480;-72
2022/04/22 10:04:36;;;;;;;25.45;21.05;;;;;;;;;;4919439;29;20563;-72
2022/04/22 10:07:07;;;;;;;23.75;20.95;;;;;;;;;;4927385;29;20048;-73
2022/04/22 10:09:35;;;;;;;25.05;22.23;;;;;;;;;;4919194;29;20052;-72
2022/04/22 10:12:09;;;;;;;22.95;20.45;;;;;;;;;;4928798;29;20051;-73
2022/04/22 10:14:39;;;;;;;24.33;21.65;;;;;;;;;;4937309;29;20066;-73
2022/04/22 10:17:07;;;;;;;24.05;21.55;;;;;;;;;;4938525;29;20051;-73
2022/04/22 10:19:38;;;;;;;24.25;21.30;;;;;;;;;;4931048;29;20060;-72
2022/04/22 10:22:07;;;;;;;23.80;21.23;;;;;;;;;;4928708;29;20047;-72
2022/04/22 10:24:36;;;;;;;24.08;21.48;;;;;;;;;;4937427;29;20052;-72
2022/04/22 10:27:07;;;;;;;23.42;20.58;;;;;;;;;;4937636;29;20112;-73
2022/04/22 10:29:36;;;;;;;24.17;21.58;;;;;;;;;;4936704;29;20047;-71
2022/04/22 10:32:05;;;;;;;26.08;20.88;;;;;;;;;;4936779;29;20086;-71
2022/04/22 10:34:38;;;;;;;25.40;21.70;;;;;;;;;;4937343;29;20040;-73
2022/04/22 10:37:18;;;;;;;23.10;20.40;;;;;;;;;;4938434;29;20463;-72
2022/04/22 10:39:51;;;;;;;25.73;21.25;;;;;;;;;;4905809;29;1055807;-72
2022/04/22 10:42:55;;;;;;;24.08;19.73;;;;;;;;;;4919149;29;20052;-73
2022/04/22 10:48:26;;;;;;;23.27;18.80;;;;;;;;;;4937186;29;20047;-73
2022/04/22 10:51:03;;;;;;;21.90;19.58;;;;;;;;;;4928512;29;20067;-73
2022/04/22 10:53:34;;;;;;;22.02;19.55;;;;;;;;;;4934741;29;20059;-72
2022/04/22 10:56:27;;;;;;;21.88;19.50;;;;;;;;;;4938930;29;20058;-72
2022/04/22 10:59:32;;;;;;;23.60;21.08;;;;;;;;;;4936326;29;20051;-71
2022/04/22 11:02:31;;;;;;;24.45;21.95;;;;;;;;;;4880323;29;20072;-71
2022/04/22 11:05:19;;;;;;;22.33;18.92;;;;;;;;;;4913234;29;20440;-71
2022/04/22 11:07:56;;;;;;;20.20;18.08;;;;;;;;;;4937374;29;20424;-71
2022/04/22 11:10:25;;;;;;;24.90;19.08;;;;;;;;;;4935813;29;20052;-71
2022/04/22 11:12:55;;;;;;;21.55;19.30;;;;;;;;;;4936536;29;20051;-71
2022/04/22 11:15:43;;;;;;;18.92;16.85;;;;;;;;;;4936405;29;20136;-71
2022/04/22 11:18:12;;;;;;;20.25;17.10;;;;;;;;;;4936556;29;20067;-71
2022/04/22 11:20:44;;;;;;;20.15;17.98;;;;;;;;;;4936525;29;20059;-71
2022/04/22 11:23:13;;;;;;;21.65;18.25;;;;;;;;;;4936927;29;20459;-71
2022/04/22 11:25:43;;;;;;;21.98;15.65;;;;;;;;;;4938316;29;20061;-70
2022/04/22 11:28:12;;;;;;;17.15;15.38;;;;;;;;;;4938346;29;20094;-70
2022/04/22 11:30:40;;;;;;;19.25;17.08;;;;;;;;;;4938647;29;20059;-71
2022/04/22 11:33:51;;;;;;;18.15;16.25;;;;;;;;;;4938266;29;20059;-70
2022/04/22 11:36:19;;;;;;;17.67;15.75;;;;;;;;;;4938462;29;20051;-71
2022/04/22 11:38:49;;;;;;;16.55;14.82;;;;;;;;;;4937655;29;20047;-71
2022/04/22 11:41:18;;;;;;;17.52;15.63;;;;;;;;;;4938104;29;20055;-71
2022/04/22 11:43:49;;;;;;;17.08;15.27;;;;;;;;;;4937953;29;20044;-71
2022/04/22 11:46:19;;;;;;;15.73;14.10;;;;;;;;;;4937250;29;20047;-71
2022/04/22 11:48:55;;;;;;;14.52;13.07;;;;;;;;;;4926552;29;20139;-71
2022/04/22 11:51:25;;;;;;;17.38;15.60;;;;;;;;;;4918981;29;20056;-71
2022/04/22 11:53:53;;;;;;;15.10;13.30;;;;;;;;;;4918910;29;20142;-71
2022/04/22 11:56:23;;;;;;;16.17;14.57;;;;;;;;;;4919079;29;20051;-72
2022/04/22 11:58:55;;;;;;;14.75;13.05;;;;;;;;;;4918441;29;20063;-71
2022/04/22 12:10:06;;;;;;;14.75;13.02;;;;;;;;;;4896122;29;20052;-71
2022/04/22 12:12:34;;;;;;;14.60;12.60;;;;;;;;;;4929948;29;20107;-71
2022/04/22 12:15:09;;;;;;;14.00;12.50;;;;;;;;;;4936936;29;20044;-71
2022/04/22 12:17:38;;;;;;;13.38;11.95;;;;;;;;;;4937309;29;20551;-71
2022/04/22 12:20:09;;;;;;;15.00;13.32;;;;;;;;;;4937103;29;20066;-67
2022/04/22 12:22:38;;;;;;;14.35;12.85;;;;;;;;;;4937210;29;20056;-67
2022/04/22 12:25:24;;;;;;;14.95;13.45;;;;;;;;;;4936561;29;20067;-75
2022/04/22 12:28:13;;;;;;;14.38;12.98;;;;;;;;;;4937598;29;20052;-75
2022/04/22 12:30:41;;;;;;;14.43;12.95;;;;;;;;;;4937396;29;20050;-76
2022/04/22 12:33:21;;;;;;;14.95;13.25;;;;;;;;;;4935451;29;20062;-76
2022/04/22 12:36:00;;;;;;;15.57;13.55;;;;;;;;;;4936771;29;20071;-75
2022/04/22 12:38:32;;;;;;;18.52;14.30;;;;;;;;;;4936998;29;20103;-75
2022/04/22 12:41:00;;;;;;;14.98;13.45;;;;;;;;;;4937219;29;20048;-75
2022/04/22 12:43:32;;;;;;;14.43;12.95;;;;;;;;;;4936034;29;20048;-76
2022/04/22 12:52:48;;;;;;;13.40;11.85;;;;;;;;;;4904058;29;20063;-75
2022/04/22 12:55:19;;;;;;;16.38;12.82;;;;;;;;;;4913708;29;20063;-75
2022/04/22 12:58:19;;;;;;;15.48;13.95;;;;;;;;;;4918168;29;20068;-75
2022/04/22 13:00:52;;;;;;;15.63;13.88;;;;;;;;;;4917450;29;20531;-75
2022/04/22 13:03:23;;;;;;;14.30;12.82;;;;;;;;;;4918350;29;20048;-75
2022/04/22 13:05:51;;;;;;;14.50;13.05;;;;;;;;;;4917832;29;20461;-75
2022/04/22 13:08:19;;;;;;;14.65;13.15;;;;;;;;;;4932515;29;20040;-74
2022/04/22 13:10:48;;;;;;;14.15;12.63;;;;;;;;;;4918412;29;20043;-75
2022/04/22 13:13:17;;;;;;;15.43;13.88;;;;;;;;;;4924112;29;20078;-75
2022/04/22 13:15:46;;;;;;;15.15;13.55;;;;;;;;;;4937080;29;20055;-75
2022/04/22 13:18:15;;;;;;;15.43;13.50;;;;;;;;;;4936318;29;20052;-75
2022/04/22 13:20:43;;;;;;;15.23;13.68;;;;;;;;;;4936974;29;20060;-75
2022/04/22 13:23:10;;;;;;;13.55;12.25;;;;;;;;;;4936378;29;20052;-75
2022/04/22 13:25:40;;;;;;;13.57;12.20;;;;;;;;;;4936397;29;20119;-73
2022/04/22 13:28:10;;;;;;;16.48;14.88;;;;;;;;;;4936768;29;20079;-73
2022/04/22 13:30:39;;;;;;;15.07;13.60;;;;;;;;;;4917955;29;20079;-73
2022/04/22 13:33:07;;;;;;;13.70;12.40;;;;;;;;;;4920852;29;20087;-73
2022/04/22 13:35:35;;;;;;;14.55;13.00;;;;;;;;;;4921098;29;20056;-73
2022/04/22 13:38:03;;;;;;;14.48;12.98;;;;;;;;;;4920624;29;20111;-72
2022/04/22 13:40:31;;;;;;;15.43;13.82;;;;;;;;;;4919497;29;20055;-73
2022/04/22 13:43:00;;;;;;;13.88;12.52;;;;;;;;;;4925607;29;20099;-73
2022/04/22 13:53:47;;;;;;;19.15;15.00;;;;;;;;;;4940040;29;20055;-74
2022/04/22 13:56:16;;;;;;;16.98;14.88;;;;;;;;;;4940142;29;20076;-74
2022/04/22 13:58:45;;;;;;;18.45;16.52;;;;;;;;;;4940111;29;20127;-74
2022/04/22 14:01:13;;;;;;;17.02;14.93;;;;;;;;;;4940038;29;20483;-73
2022/04/22 14:03:43;;;;;;;16.85;15.05;;;;;;;;;;4939837;29;20175;-74
2022/04/22 14:06:11;;;;;;;18.30;14.35;;;;;;;;;;4936755;29;20052;-74
2022/04/22 14:08:41;;;;;;;18.48;15.70;;;;;;;;;;4920858;29;20141;-73
2022/04/22 14:11:10;;;;;;;16.08;14.40;;;;;;;;;;4921175;29;20060;-73
2022/04/22 14:13:38;;;;;;;19.42;15.07;;;;;;;;;;4930214;29;20079;-73
2022/04/22 14:16:06;;;;;;;16.35;14.70;;;;;;;;;;4938863;29;20142;-72
2022/04/22 14:18:35;;;;;;;17.50;15.75;;;;;;;;;;4939023;29;20562;-73
2022/04/22 14:21:05;;;;;;;15.82;14.00;;;;;;;;;;4939241;29;20048;-74
2022/04/22 14:23:33;;;;;;;16.63;13.98;;;;;;;;;;4922646;29;20051;-73
2022/04/22 14:26:02;;;;;;;14.43;13.00;;;;;;;;;;4920389;29;20135;-72
2022/04/22 14:28:31;;;;;;;16.00;14.50;;;;;;;;;;4932282;29;20086;-73
2022/04/22 14:31:01;;;;;;;15.65;14.05;;;;;;;;;;4939377;29;20066;-73
2022/04/22 14:33:29;;;;;;;15.00;13.57;;;;;;;;;;4939310;29;20052;-73
2022/04/22 14:35:57;;;;;;;14.30;12.90;;;;;;;;;;4939512;29;20131;-73
2022/04/22 14:38:25;;;;;;;15.90;14.32;;;;;;;;;;4939385;29;20055;-73
2022/04/22 14:40:54;;;;;;;15.90;13.40;;;;;;;;;;4938660;29;20138;-72
2022/04/22 14:43:22;;;;;;;14.43;13.00;;;;;;;;;;4937531;29;20079;-73
2022/04/22 14:45:51;;;;;;;17.58;14.88;;;;;;;;;;4938663;29;20059;-72
2022/04/22 14:48:20;;;;;;;14.55;12.85;;;;;;;;;;4938526;29;20048;-74
2022/04/22 14:50:50;;;;;;;14.00;12.60;;;;;;;;;;4938754;29;20099;-73
2022/04/22 14:53:18;;;;;;;15.02;13.48;;;;;;;;;;4949128;29;20471;-73
2022/04/22 14:55:46;;;;;;;17.30;14.10;;;;;;;;;;4937840;29;20460;-72
2022/04/22 14:58:15;;;;;;;17.30;14.10;;;;;;;;;;4937169;29;20048;-73
2022/04/22 15:00:45;;;;;;;13.40;12.10;;;;;;;;;;4938625;29;20581;-73
2022/04/22 15:03:15;;;;;;;10.88;9.82;;;;;;;;;;4938384;29;20157;-71
2022/04/22 15:05:51;;;;;;;7.60;6.93;;;;;;;;;;4938330;29;20056;-72
2022/04/22 15:08:20;;;;;;;8.98;8.07;;;;;;;;;;4938374;29;20048;-72
2022/04/22 15:10:48;;;;;;;12.65;10.25;;;;;;;;;;4933583;29;20060;-70
2022/04/22 15:13:17;;;;;;;9.63;8.73;;;;;;;;;;4925328;29;20122;-71
2022/04/22 15:15:46;;;;;;;11.18;9.02;;;;;;;;;;4937408;29;20047;-71
2022/04/22 15:26:42;;;;;;;9.88;8.80;;;;;;;;;;4938131;29;20135;-70
2022/04/22 15:29:30;;;;;;;10.77;9.68;;;;;;;;;;4937565;29;20404;-70
2022/04/22 15:32:00;;;;;;;17.45;15.73;;;;;;;;;;4938060;29;20066;-70
2022/04/22 15:34:29;;;;;;;10.48;9.38;;;;;;;;;;4938068;29;20059;-71
2022/04/22 15:36:59;;;;;;;10.30;8.98;;;;;;;;;;4938296;29;20079;-70
2022/04/22 15:39:29;;;;;;;8.98;8.10;;;;;;;;;;4937361;29;20114;-70
2022/04/22 15:41:58;;;;;;;8.02;7.03;;;;;;;;;;4934322;29;20126;-71
2022/04/22 15:44:45;;;;;;;11.18;8.82;;;;;;;;;;4937078;29;20139;-72
2022/04/22 15:47:14;;;;;;;9.82;8.88;;;;;;;;;;4936351;29;20508;-71
2022/04/22 15:49:48;;;;;;;10.82;9.57;;;;;;;;;;4923168;29;20063;-70
2022/04/22 15:52:18;;;;;;;9.85;8.85;;;;;;;;;;4925971;29;20043;-69
2022/04/22 15:54:46;;;;;;;10.10;9.10;;;;;;;;;;4929065;29;20500;-77
2022/04/22 15:57:14;;;;;;;9.95;8.93;;;;;;;;;;4927397;29;20048;-77
2022/04/22 15:59:43;;;;;;;9.30;8.40;;;;;;;;;;4930808;29;20582;-69
2022/04/22 16:02:11;;;;;;;11.27;9.70;;;;;;;;;;4928592;29;20047;-69
2022/04/22 16:04:39;;;;;;;11.07;9.98;;;;;;;;;;4930424;29;20072;-69
2022/04/22 16:07:09;;;;;;;10.43;9.45;;;;;;;;;;4932074;29;20052;-67
2022/04/22 16:09:37;;;;;;;9.73;7.68;;;;;;;;;;4931198;29;20135;-69